createdAt,value
2022-11-13T00:00:03.426Z,6.74
2022-11-13T00:00:13.679Z,6.74
2022-11-13T00:00:23.936Z,6.74
2022-11-13T00:00:34.180Z,6.74
2022-11-13T00:00:44.427Z,6.72
2022-11-13T00:00:54.672Z,6.72
2022-11-13T00:01:04.915Z,6.72
2022-11-13T00:01:15.174Z,6.74
2022-11-13T00:01:25.401Z,6.72
2022-11-13T00:01:35.647Z,6.72
2022-11-13T00:01:45.894Z,6.71
2022-11-13T00:01:56.151Z,6.72
2022-11-13T00:02:06.443Z,6.71
2022-11-13T00:02:16.856Z,6.71
2022-11-13T00:02:27.153Z,6.72
2022-11-13T00:02:37.436Z,6.71
2022-11-13T00:02:47.741Z,6.70
2022-11-13T00:02:58.118Z,6.71
2022-11-13T00:03:08.386Z,6.72
2022-11-13T00:03:18.629Z,6.70
2022-11-13T00:03:28.869Z,6.71
2022-11-13T00:03:39.116Z,6.71
2022-11-13T00:03:49.358Z,6.70
2022-11-13T00:03:59.604Z,6.70
2022-11-13T00:04:09.847Z,6.70
2022-11-13T00:04:20.094Z,6.71
2022-11-13T00:04:30.342Z,6.68
2022-11-13T00:04:40.580Z,6.70
2022-11-13T00:04:50.838Z,6.68
2022-11-13T00:05:01.074Z,6.70
2022-11-13T00:05:11.317Z,6.68
2022-11-13T00:05:21.558Z,6.68
2022-11-13T00:05:31.816Z,6.68
2022-11-13T00:05:42.061Z,6.68
2022-11-13T00:05:52.313Z,6.65
2022-11-13T00:06:02.570Z,6.68
2022-11-13T00:06:12.797Z,6.67
2022-11-13T00:06:23.049Z,6.67
2022-11-13T00:06:33.292Z,6.67
2022-11-13T00:06:43.598Z,6.67
2022-11-13T00:06:58.951Z,6.67
2022-11-13T00:07:05.326Z,6.68
2022-11-13T00:07:14.558Z,6.67
2022-11-13T00:07:24.868Z,6.68
2022-11-13T00:07:35.095Z,6.67
2022-11-13T00:07:45.345Z,6.67
2022-11-13T00:07:55.598Z,6.67
2022-11-13T00:08:05.832Z,6.67
2022-11-13T00:08:16.082Z,6.67
2022-11-13T00:08:26.888Z,6.64
2022-11-13T00:08:36.582Z,6.64
2022-11-13T00:08:46.822Z,6.65
2022-11-13T00:08:57.079Z,6.65
2022-11-13T00:09:07.323Z,6.65
2022-11-13T00:09:17.567Z,6.62
2022-11-13T00:09:27.829Z,6.64
2022-11-13T00:09:38.059Z,6.64
2022-11-13T00:09:48.309Z,6.62
2022-11-13T00:09:58.537Z,6.64
2022-11-13T00:10:08.776Z,6.62
2022-11-13T00:10:19.025Z,6.62
2022-11-13T00:10:29.307Z,6.64
2022-11-13T00:10:39.552Z,6.62
2022-11-13T00:10:49.786Z,6.65
2022-11-13T00:11:00.035Z,6.62
2022-11-13T00:11:10.312Z,6.60
2022-11-13T00:11:20.528Z,6.62
2022-11-13T00:11:30.767Z,6.60
2022-11-13T00:11:41.016Z,6.60
2022-11-13T00:11:51.257Z,6.60
2022-11-13T00:12:01.509Z,6.59
2022-11-13T00:12:11.765Z,6.59
2022-11-13T00:12:22.039Z,6.59
2022-11-13T00:12:32.303Z,6.60
2022-11-13T00:12:42.546Z,6.60
2022-11-13T00:12:52.786Z,6.59
2022-11-13T00:13:03.035Z,6.59
2022-11-13T00:13:13.276Z,6.60
2022-11-13T00:13:29.014Z,6.59
2022-11-13T00:13:34.945Z,6.59
2022-11-13T00:13:44.329Z,6.57
2022-11-13T00:13:54.578Z,6.59
2022-11-13T00:14:04.814Z,6.59
2022-11-13T00:14:15.070Z,6.59
2022-11-13T00:14:25.307Z,6.56
2022-11-13T00:14:35.549Z,6.59
2022-11-13T00:14:45.800Z,6.57
2022-11-13T00:14:56.034Z,6.57
2022-11-13T00:15:06.279Z,6.57
2022-11-13T00:15:16.537Z,6.57
2022-11-13T00:15:26.806Z,6.57
2022-11-13T00:15:37.094Z,6.56
2022-11-13T00:15:47.328Z,6.56
2022-11-13T00:15:57.569Z,6.56
2022-11-13T00:16:07.826Z,6.56
2022-11-13T00:16:18.064Z,6.57
2022-11-13T00:16:28.306Z,6.54
2022-11-13T00:16:38.550Z,6.56
2022-11-13T00:16:48.811Z,6.56
2022-11-13T00:16:59.062Z,6.57
2022-11-13T00:17:09.339Z,6.54
2022-11-13T00:17:19.693Z,6.56
2022-11-13T00:17:29.881Z,6.53
2022-11-13T00:17:40.143Z,6.56
2022-11-13T00:17:50.394Z,6.53
2022-11-13T00:18:00.634Z,6.54
2022-11-13T00:18:10.877Z,6.54
2022-11-13T00:18:21.128Z,6.54
2022-11-13T00:18:31.484Z,6.53
2022-11-13T00:18:41.745Z,6.53
2022-11-13T00:18:52.002Z,6.54
2022-11-13T00:19:02.227Z,6.53
2022-11-13T00:19:12.478Z,6.54
2022-11-13T00:19:22.720Z,6.53
2022-11-13T00:19:32.963Z,6.53
2022-11-13T00:19:43.227Z,6.52
2022-11-13T00:19:53.462Z,6.52
2022-11-13T00:20:03.709Z,6.53
2022-11-13T00:20:13.953Z,6.52
2022-11-13T00:20:24.200Z,6.53
2022-11-13T00:20:34.457Z,6.52
2022-11-13T00:20:44.696Z,6.50
2022-11-13T00:20:54.957Z,6.50
2022-11-13T00:21:05.187Z,6.52
2022-11-13T00:21:15.457Z,6.50
2022-11-13T00:21:25.702Z,6.50
2022-11-13T00:21:35.952Z,6.50
2022-11-13T00:21:46.189Z,6.49
2022-11-13T00:21:56.435Z,6.50
2022-11-13T00:22:06.679Z,6.50
2022-11-13T00:22:16.930Z,6.50
2022-11-13T00:22:27.169Z,6.50
2022-11-13T00:22:37.414Z,6.50
2022-11-13T00:22:47.666Z,6.49
2022-11-13T00:22:57.932Z,6.50
2022-11-13T00:23:08.150Z,6.49
2022-11-13T00:23:18.395Z,6.49
2022-11-13T00:23:28.637Z,6.46
2022-11-13T00:23:38.883Z,6.47
2022-11-13T00:23:49.131Z,6.46
2022-11-13T00:23:59.369Z,6.47
2022-11-13T00:24:09.627Z,6.47
2022-11-13T00:24:19.870Z,6.46
2022-11-13T00:24:30.117Z,6.47
2022-11-13T00:24:40.366Z,6.47
2022-11-13T00:24:50.609Z,6.46
2022-11-13T00:25:00.872Z,6.46
2022-11-13T00:25:11.100Z,6.47
2022-11-13T00:25:21.348Z,6.46
2022-11-13T00:25:31.598Z,6.46
2022-11-13T00:25:41.843Z,6.44
2022-11-13T00:25:52.094Z,6.46
2022-11-13T00:26:02.342Z,6.44
2022-11-13T00:26:12.588Z,6.44
2022-11-13T00:26:22.830Z,6.44
2022-11-13T00:26:33.077Z,6.44
2022-11-13T00:26:43.324Z,6.44
2022-11-13T00:26:53.569Z,6.44
2022-11-13T00:27:03.843Z,6.43
2022-11-13T00:27:14.090Z,6.43
2022-11-13T00:27:24.325Z,6.43
2022-11-13T00:27:34.570Z,6.44
2022-11-13T00:27:44.812Z,6.44
2022-11-13T00:27:55.062Z,6.43
2022-11-13T00:28:05.301Z,6.41
2022-11-13T00:28:15.555Z,6.41
2022-11-13T00:28:26.168Z,6.43
2022-11-13T00:28:36.142Z,6.41
2022-11-13T00:28:46.387Z,6.41
2022-11-13T00:28:56.638Z,6.41
2022-11-13T00:29:06.880Z,6.41
2022-11-13T00:29:17.123Z,6.39
2022-11-13T00:29:27.362Z,6.39
2022-11-13T00:29:37.636Z,6.41
2022-11-13T00:29:47.883Z,6.39
2022-11-13T00:29:58.135Z,6.41
2022-11-13T00:30:08.376Z,6.39
2022-11-13T00:30:19.695Z,6.41
2022-11-13T00:30:28.934Z,6.36
2022-11-13T00:30:39.178Z,6.39
2022-11-13T00:30:49.425Z,6.39
2022-11-13T00:30:59.681Z,6.38
2022-11-13T00:31:09.913Z,6.36
2022-11-13T00:31:20.159Z,6.36
2022-11-13T00:31:30.404Z,6.36
2022-11-13T00:31:40.680Z,6.38
2022-11-13T00:31:50.911Z,6.38
2022-11-13T00:32:01.147Z,6.38
2022-11-13T00:32:11.395Z,6.35
2022-11-13T00:32:21.638Z,6.36
2022-11-13T00:32:32.005Z,6.36
2022-11-13T00:32:42.198Z,6.35
2022-11-13T00:32:52.467Z,6.35
2022-11-13T00:33:02.695Z,6.35
2022-11-13T00:33:16.292Z,6.35
2022-11-13T00:33:45.391Z,6.35
2022-11-13T00:34:09.278Z,6.34
2022-11-13T00:34:13.954Z,6.35
2022-11-13T00:34:26.073Z,6.34
2022-11-13T00:34:46.606Z,6.34
2022-11-13T00:34:47.712Z,6.34
2022-11-13T00:34:48.320Z,6.34
2022-11-13T00:34:52.049Z,6.34
2022-11-13T00:34:56.431Z,6.35
2022-11-13T00:35:06.694Z,6.32
2022-11-13T00:35:16.955Z,6.32
2022-11-13T00:35:27.222Z,6.35
2022-11-13T00:35:37.448Z,6.32
2022-11-13T00:35:47.702Z,6.32
2022-11-13T00:35:57.949Z,6.32
2022-11-13T00:36:08.193Z,6.32
2022-11-13T00:36:18.523Z,6.32
2022-11-13T00:36:28.734Z,6.32
2022-11-13T00:36:38.958Z,6.31
2022-11-13T00:36:49.202Z,6.31
2022-11-13T00:36:59.447Z,6.31
2022-11-13T00:37:09.691Z,6.31
2022-11-13T00:37:19.936Z,6.31
2022-11-13T00:37:30.198Z,6.29
2022-11-13T00:37:40.445Z,6.32
2022-11-13T00:37:50.680Z,6.31
2022-11-13T00:38:00.924Z,6.29
2022-11-13T00:38:11.173Z,6.29
2022-11-13T00:38:21.411Z,6.29
2022-11-13T00:38:31.656Z,6.31
2022-11-13T00:38:41.902Z,6.31
2022-11-13T00:38:52.145Z,6.29
2022-11-13T00:39:02.393Z,6.28
2022-11-13T00:39:12.640Z,6.28
2022-11-13T00:39:22.881Z,6.29
2022-11-13T00:39:33.126Z,6.29
2022-11-13T00:39:43.364Z,6.28
2022-11-13T00:39:59.400Z,6.29
2022-11-13T00:40:05.035Z,6.28
2022-11-13T00:40:14.427Z,6.28
2022-11-13T00:40:24.696Z,6.26
2022-11-13T00:40:34.932Z,6.26
2022-11-13T00:40:45.179Z,6.25
2022-11-13T00:40:55.419Z,6.28
2022-11-13T00:41:05.671Z,6.26
2022-11-13T00:41:15.913Z,6.28
2022-11-13T00:41:26.172Z,6.26
2022-11-13T00:41:36.414Z,6.26
2022-11-13T00:41:46.657Z,6.26
2022-11-13T00:41:56.913Z,6.26
2022-11-13T00:42:07.164Z,6.22
2022-11-13T00:42:17.418Z,6.25
2022-11-13T00:42:27.661Z,6.22
2022-11-13T00:42:37.908Z,6.22
2022-11-13T00:42:48.155Z,6.25
2022-11-13T00:42:58.399Z,6.22
2022-11-13T00:43:08.643Z,6.22
2022-11-13T00:43:18.897Z,6.20
2022-11-13T00:43:29.130Z,6.20
2022-11-13T00:43:39.380Z,6.20
2022-11-13T00:43:49.654Z,6.22
2022-11-13T00:43:59.884Z,6.19
2022-11-13T00:44:10.123Z,6.19
2022-11-13T00:44:20.373Z,6.19
2022-11-13T00:44:30.628Z,6.19
2022-11-13T00:44:40.860Z,6.17
2022-11-13T00:44:51.114Z,6.19
2022-11-13T00:45:01.349Z,6.20
2022-11-13T00:45:11.592Z,6.20
2022-11-13T00:45:21.842Z,6.17
2022-11-13T00:45:32.086Z,6.17
2022-11-13T00:45:42.330Z,6.17
2022-11-13T00:45:52.578Z,6.17
2022-11-13T00:46:02.825Z,6.17
2022-11-13T00:46:13.062Z,6.17
2022-11-13T00:46:23.306Z,6.17
2022-11-13T00:46:33.549Z,6.17
2022-11-13T00:46:43.799Z,6.17
2022-11-13T00:46:54.040Z,6.17
2022-11-13T00:47:04.300Z,6.17
2022-11-13T00:47:14.535Z,6.15
2022-11-13T00:47:24.788Z,6.17
2022-11-13T00:47:35.209Z,6.16
2022-11-13T00:47:45.407Z,6.16
2022-11-13T00:47:55.661Z,6.16
2022-11-13T00:48:05.902Z,6.16
2022-11-13T00:48:16.144Z,6.16
2022-11-13T00:48:26.827Z,6.17
2022-11-13T00:48:36.813Z,6.15
2022-11-13T00:48:47.055Z,6.15
2022-11-13T00:48:57.312Z,6.15
2022-11-13T00:49:07.553Z,6.13
2022-11-13T00:49:17.797Z,6.15
2022-11-13T00:49:28.040Z,6.15
2022-11-13T00:49:38.292Z,6.13
2022-11-13T00:49:48.546Z,6.13
2022-11-13T00:49:58.773Z,6.15
2022-11-13T00:50:09.015Z,6.13
2022-11-13T00:50:19.259Z,6.12
2022-11-13T00:50:29.528Z,6.13
2022-11-13T00:50:39.775Z,6.13
2022-11-13T00:50:50.019Z,6.13
2022-11-13T00:51:00.274Z,6.13
2022-11-13T00:51:10.508Z,6.12
2022-11-13T00:51:20.749Z,6.12
2022-11-13T00:51:30.995Z,6.12
2022-11-13T00:51:41.243Z,6.12
2022-11-13T00:51:51.485Z,6.10
2022-11-13T00:52:01.730Z,6.10
2022-11-13T00:52:11.978Z,6.09
2022-11-13T00:52:22.223Z,6.10
2022-11-13T00:52:32.465Z,6.10
2022-11-13T00:52:42.705Z,6.10
2022-11-13T00:52:52.955Z,6.10
2022-11-13T00:53:03.194Z,6.09
2022-11-13T00:53:17.916Z,6.09
2022-11-13T00:53:23.714Z,6.10
2022-11-13T00:53:33.955Z,6.07
2022-11-13T00:53:44.199Z,6.09
2022-11-13T00:53:54.474Z,6.07
2022-11-13T00:54:04.716Z,6.07
2022-11-13T00:54:14.961Z,6.09
2022-11-13T00:54:25.202Z,6.07
2022-11-13T00:54:35.444Z,6.07
2022-11-13T00:54:45.686Z,6.06
2022-11-13T00:54:55.938Z,6.06
2022-11-13T00:55:06.196Z,6.06
2022-11-13T00:55:16.435Z,6.07
2022-11-13T00:55:26.799Z,6.06
2022-11-13T00:55:36.994Z,6.05
2022-11-13T00:55:47.239Z,6.06
2022-11-13T00:55:57.490Z,6.05
2022-11-13T00:56:07.746Z,6.05
2022-11-13T00:56:18.001Z,6.06
2022-11-13T00:56:28.248Z,6.06
2022-11-13T00:56:38.493Z,6.05
2022-11-13T00:56:48.733Z,6.02
2022-11-13T00:56:58.988Z,6.05
2022-11-13T00:57:09.244Z,6.02
2022-11-13T00:57:19.495Z,6.02
2022-11-13T00:57:29.747Z,6.02
2022-11-13T00:57:39.994Z,6.02
2022-11-13T00:57:50.232Z,6.02
2022-11-13T00:58:00.477Z,5.99
2022-11-13T00:58:10.719Z,6.01
2022-11-13T00:58:20.965Z,5.99
2022-11-13T00:58:31.540Z,5.99
2022-11-13T00:58:41.460Z,5.99
2022-11-13T00:58:51.706Z,6.01
2022-11-13T00:59:01.940Z,5.99
2022-11-13T00:59:12.183Z,6.01
2022-11-13T00:59:22.429Z,5.99
2022-11-13T00:59:32.693Z,5.98
2022-11-13T00:59:42.931Z,5.98
2022-11-13T00:59:53.178Z,5.98
2022-11-13T01:00:03.434Z,5.98
2022-11-13T01:00:13.668Z,5.98
2022-11-13T01:00:23.926Z,5.98
2022-11-13T01:00:34.169Z,5.97
2022-11-13T01:00:44.420Z,5.97
2022-11-13T01:00:54.655Z,5.97
2022-11-13T01:01:04.924Z,5.98
2022-11-13T01:01:15.237Z,5.97
2022-11-13T01:01:25.551Z,5.97
2022-11-13T01:01:35.833Z,5.95
2022-11-13T01:01:46.070Z,5.95
2022-11-13T01:01:56.391Z,5.95
2022-11-13T01:02:06.703Z,5.95
2022-11-13T01:02:17.004Z,5.94
2022-11-13T01:02:27.249Z,5.94
2022-11-13T01:02:37.614Z,5.94
2022-11-13T01:02:47.809Z,5.94
2022-11-13T01:02:58.052Z,5.95
2022-11-13T01:03:08.304Z,5.94
2022-11-13T01:03:18.542Z,5.94
2022-11-13T01:03:28.782Z,5.95
2022-11-13T01:03:39.028Z,5.94
2022-11-13T01:03:49.278Z,5.95
2022-11-13T01:03:59.563Z,5.92
2022-11-13T01:04:09.784Z,5.92
2022-11-13T01:04:20.020Z,5.92
2022-11-13T01:04:30.262Z,5.92
2022-11-13T01:04:40.519Z,5.92
2022-11-13T01:04:50.756Z,5.92
2022-11-13T01:05:00.999Z,5.92
2022-11-13T01:05:11.247Z,5.91
2022-11-13T01:05:21.488Z,5.92
2022-11-13T01:05:31.754Z,5.91
2022-11-13T01:05:42.003Z,5.91
2022-11-13T01:05:52.256Z,5.91
2022-11-13T01:06:02.491Z,5.91
2022-11-13T01:06:12.739Z,5.90
2022-11-13T01:06:22.979Z,5.91
2022-11-13T01:06:33.231Z,5.91
2022-11-13T01:06:43.516Z,5.90
2022-11-13T01:06:53.765Z,5.91
2022-11-13T01:07:04.082Z,5.88
2022-11-13T01:07:14.405Z,5.90
2022-11-13T01:07:24.628Z,5.88
2022-11-13T01:07:34.882Z,5.90
2022-11-13T01:07:45.127Z,5.88
2022-11-13T01:07:55.383Z,5.90
2022-11-13T01:08:05.630Z,5.88
2022-11-13T01:08:15.875Z,5.90
2022-11-13T01:08:26.393Z,5.87
2022-11-13T01:08:36.545Z,5.88
2022-11-13T01:08:46.806Z,5.88
2022-11-13T01:08:57.043Z,5.87
2022-11-13T01:09:07.283Z,5.87
2022-11-13T01:09:17.531Z,5.88
2022-11-13T01:09:27.775Z,5.88
2022-11-13T01:09:38.022Z,5.84
2022-11-13T01:09:48.268Z,5.87
2022-11-13T01:09:58.512Z,5.87
2022-11-13T01:10:08.861Z,5.84
2022-11-13T01:10:19.104Z,5.84
2022-11-13T01:10:29.376Z,5.83
2022-11-13T01:10:39.610Z,5.84
2022-11-13T01:10:53.374Z,5.81
2022-11-13T01:11:00.160Z,5.84
2022-11-13T01:11:10.407Z,5.83
2022-11-13T01:11:20.653Z,5.81
2022-11-13T01:11:30.917Z,5.84
2022-11-13T01:11:41.158Z,5.83
2022-11-13T01:11:51.392Z,5.83
2022-11-13T01:12:01.646Z,5.83
2022-11-13T01:12:11.910Z,5.81
2022-11-13T01:12:22.147Z,5.81
2022-11-13T01:12:32.387Z,5.83
2022-11-13T01:12:42.633Z,5.81
2022-11-13T01:12:52.876Z,5.81
2022-11-13T01:13:03.123Z,5.81
2022-11-13T01:13:13.386Z,5.81
2022-11-13T01:13:23.611Z,5.81
2022-11-13T01:13:33.858Z,5.80
2022-11-13T01:13:44.098Z,5.80
2022-11-13T01:13:54.345Z,5.81
2022-11-13T01:14:04.590Z,5.79
2022-11-13T01:14:14.863Z,5.81
2022-11-13T01:14:25.087Z,5.81
2022-11-13T01:14:35.325Z,5.79
2022-11-13T01:14:45.572Z,5.80
2022-11-13T01:14:55.825Z,5.79
2022-11-13T01:15:06.070Z,5.79
2022-11-13T01:15:16.314Z,5.81
2022-11-13T01:15:26.570Z,5.77
2022-11-13T01:15:36.829Z,5.77
2022-11-13T01:15:47.086Z,5.77
2022-11-13T01:15:57.335Z,5.77
2022-11-13T01:16:07.569Z,5.79
2022-11-13T01:16:17.814Z,5.77
2022-11-13T01:16:28.068Z,5.77
2022-11-13T01:16:38.301Z,5.77
2022-11-13T01:16:48.548Z,5.76
2022-11-13T01:16:58.794Z,5.77
2022-11-13T01:17:09.038Z,5.77
2022-11-13T01:17:19.283Z,5.76
2022-11-13T01:17:32.728Z,5.76
2022-11-13T01:17:39.761Z,5.76
2022-11-13T01:17:49.986Z,5.77
2022-11-13T01:18:00.231Z,5.73
2022-11-13T01:18:10.476Z,5.74
2022-11-13T01:18:20.730Z,5.77
2022-11-13T01:18:31.053Z,5.74
2022-11-13T01:18:41.262Z,5.74
2022-11-13T01:18:51.494Z,5.74
2022-11-13T01:19:01.756Z,5.74
2022-11-13T01:19:11.995Z,5.72
2022-11-13T01:19:22.230Z,5.73
2022-11-13T01:19:32.472Z,5.73
2022-11-13T01:19:42.718Z,5.73
2022-11-13T01:19:52.973Z,5.73
2022-11-13T01:20:03.215Z,5.74
2022-11-13T01:20:13.452Z,5.73
2022-11-13T01:20:23.702Z,5.73
2022-11-13T01:20:33.964Z,5.72
2022-11-13T01:20:44.206Z,5.73
2022-11-13T01:20:54.455Z,5.70
2022-11-13T01:21:04.697Z,5.70
2022-11-13T01:21:14.960Z,5.72
2022-11-13T01:21:25.213Z,5.70
2022-11-13T01:21:35.455Z,5.69
2022-11-13T01:21:45.697Z,5.69
2022-11-13T01:21:55.945Z,5.70
2022-11-13T01:22:06.197Z,5.69
2022-11-13T01:22:16.434Z,5.70
2022-11-13T01:22:26.710Z,5.70
2022-11-13T01:22:36.941Z,5.70
2022-11-13T01:22:47.175Z,5.69
2022-11-13T01:22:57.415Z,5.69
2022-11-13T01:23:07.676Z,5.69
2022-11-13T01:23:17.921Z,5.69
2022-11-13T01:23:28.153Z,5.69
2022-11-13T01:23:38.397Z,5.67
2022-11-13T01:23:48.647Z,5.69
2022-11-13T01:23:58.886Z,5.67
2022-11-13T01:24:09.129Z,5.69
2022-11-13T01:24:19.378Z,5.69
2022-11-13T01:24:29.631Z,5.65
2022-11-13T01:24:39.871Z,5.65
2022-11-13T01:24:50.116Z,5.64
2022-11-13T01:25:00.364Z,5.65
2022-11-13T01:25:10.608Z,5.67
2022-11-13T01:25:20.854Z,5.65
2022-11-13T01:25:31.098Z,5.64
2022-11-13T01:25:41.362Z,5.65
2022-11-13T01:25:51.613Z,5.65
2022-11-13T01:26:01.855Z,5.65
2022-11-13T01:26:12.107Z,5.64
2022-11-13T01:26:22.344Z,5.64
2022-11-13T01:26:32.585Z,5.65
2022-11-13T01:26:42.836Z,5.64
2022-11-13T01:26:53.075Z,5.61
2022-11-13T01:27:03.321Z,5.64
2022-11-13T01:27:13.570Z,5.62
2022-11-13T01:27:23.807Z,5.62
2022-11-13T01:27:34.057Z,5.61
2022-11-13T01:27:44.303Z,5.62
2022-11-13T01:27:54.545Z,5.61
2022-11-13T01:28:04.789Z,5.61
2022-11-13T01:28:15.038Z,5.61
2022-11-13T01:28:25.437Z,5.61
2022-11-13T01:28:35.556Z,5.59
2022-11-13T01:28:45.803Z,5.61
2022-11-13T01:28:56.042Z,5.59
2022-11-13T01:29:06.284Z,5.59
2022-11-13T01:29:16.532Z,5.59
2022-11-13T01:29:26.779Z,5.58
2022-11-13T01:29:37.023Z,5.58
2022-11-13T01:29:47.271Z,5.59
2022-11-13T01:29:57.509Z,5.58
2022-11-13T01:30:07.751Z,5.58
2022-11-13T01:30:18.000Z,5.59
2022-11-13T01:30:28.242Z,5.58
2022-11-13T01:30:38.496Z,5.59
2022-11-13T01:30:48.765Z,5.58
2022-11-13T01:30:58.996Z,5.58
2022-11-13T01:31:09.237Z,5.58
2022-11-13T01:31:19.483Z,5.58
2022-11-13T01:31:29.737Z,5.56
2022-11-13T01:31:39.979Z,5.56
2022-11-13T01:31:50.224Z,5.56
2022-11-13T01:32:00.468Z,5.56
2022-11-13T01:32:10.721Z,5.56
2022-11-13T01:32:20.957Z,5.55
2022-11-13T01:32:31.200Z,5.56
2022-11-13T01:32:41.444Z,5.56
2022-11-13T01:32:51.802Z,5.55
2022-11-13T01:33:02.067Z,5.54
2022-11-13T01:33:12.285Z,5.55
2022-11-13T01:33:22.524Z,5.55
2022-11-13T01:33:32.765Z,5.54
2022-11-13T01:33:43.023Z,5.54
2022-11-13T01:33:53.259Z,5.54
2022-11-13T01:34:03.500Z,5.54
2022-11-13T01:34:13.743Z,5.54
2022-11-13T01:34:23.991Z,5.54
2022-11-13T01:34:34.242Z,5.52
2022-11-13T01:34:44.487Z,5.52
2022-11-13T01:34:54.728Z,5.52
2022-11-13T01:35:04.972Z,5.51
2022-11-13T01:35:15.214Z,5.51
2022-11-13T01:35:25.459Z,5.51
2022-11-13T01:35:35.716Z,5.51
2022-11-13T01:35:45.971Z,5.51
2022-11-13T01:35:56.223Z,5.51
2022-11-13T01:36:06.456Z,5.51
2022-11-13T01:36:16.697Z,5.49
2022-11-13T01:36:26.944Z,5.51
2022-11-13T01:36:37.188Z,5.51
2022-11-13T01:36:47.443Z,5.49
2022-11-13T01:36:57.673Z,5.51
2022-11-13T01:37:07.920Z,5.49
2022-11-13T01:37:18.165Z,5.49
2022-11-13T01:37:28.409Z,5.47
2022-11-13T01:37:38.662Z,5.47
2022-11-13T01:37:48.907Z,5.47
2022-11-13T01:37:59.141Z,5.49
2022-11-13T01:38:09.393Z,5.47
2022-11-13T01:38:19.638Z,5.47
2022-11-13T01:38:33.157Z,5.46
2022-11-13T01:38:41.291Z,5.46
2022-11-13T01:38:50.674Z,5.46
2022-11-13T01:39:00.919Z,5.44
2022-11-13T01:39:11.174Z,5.46
2022-11-13T01:39:21.407Z,5.49
2022-11-13T01:39:31.659Z,5.46
2022-11-13T01:39:41.894Z,5.44
2022-11-13T01:39:52.152Z,5.46
2022-11-13T01:40:02.397Z,5.46
2022-11-13T01:40:12.637Z,5.44
2022-11-13T01:40:22.882Z,5.44
2022-11-13T01:40:33.141Z,5.44
2022-11-13T01:40:43.403Z,5.44
2022-11-13T01:40:53.640Z,5.44
2022-11-13T01:41:03.885Z,5.44
2022-11-13T01:41:16.754Z,5.44
2022-11-13T01:41:24.496Z,5.44
2022-11-13T01:41:34.744Z,5.43
2022-11-13T01:41:44.984Z,5.43
2022-11-13T01:41:55.229Z,5.44
2022-11-13T01:42:05.469Z,5.43
2022-11-13T01:42:15.716Z,5.43
2022-11-13T01:42:25.958Z,5.44
2022-11-13T01:42:36.203Z,5.43
2022-11-13T01:42:46.439Z,5.41
2022-11-13T01:42:56.690Z,5.41
2022-11-13T01:43:06.925Z,5.43
2022-11-13T01:43:17.170Z,5.41
2022-11-13T01:43:27.414Z,5.41
2022-11-13T01:43:37.658Z,5.40
2022-11-13T01:43:47.904Z,5.41
2022-11-13T01:43:58.150Z,5.41
2022-11-13T01:44:08.396Z,5.41
2022-11-13T01:44:18.640Z,5.41
2022-11-13T01:44:28.887Z,5.41
2022-11-13T01:44:39.128Z,5.41
2022-11-13T01:44:49.368Z,5.41
2022-11-13T01:44:59.612Z,5.38
2022-11-13T01:45:09.854Z,5.41
2022-11-13T01:45:20.099Z,5.38
2022-11-13T01:45:30.345Z,5.40
2022-11-13T01:45:40.602Z,5.38
2022-11-13T01:45:50.851Z,5.38
2022-11-13T01:46:01.097Z,5.38
2022-11-13T01:46:11.336Z,5.38
2022-11-13T01:46:21.580Z,5.38
2022-11-13T01:46:31.835Z,5.38
2022-11-13T01:46:42.066Z,5.40
2022-11-13T01:46:52.309Z,5.37
2022-11-13T01:47:02.553Z,5.37
2022-11-13T01:47:12.799Z,5.37
2022-11-13T01:47:23.042Z,5.36
2022-11-13T01:47:33.294Z,5.37
2022-11-13T01:47:43.529Z,5.37
2022-11-13T01:47:53.886Z,5.36
2022-11-13T01:48:04.082Z,5.36
2022-11-13T01:48:14.323Z,5.36
2022-11-13T01:48:24.730Z,5.36
2022-11-13T01:48:34.853Z,5.37
2022-11-13T01:48:45.097Z,5.37
2022-11-13T01:48:55.338Z,5.37
2022-11-13T01:49:05.580Z,5.36
2022-11-13T01:49:15.827Z,5.34
2022-11-13T01:49:26.072Z,5.37
2022-11-13T01:49:36.325Z,5.34
2022-11-13T01:49:46.573Z,5.36
2022-11-13T01:49:56.808Z,5.34
2022-11-13T01:50:07.045Z,5.36
2022-11-13T01:50:17.294Z,5.34
2022-11-13T01:50:27.535Z,5.33
2022-11-13T01:50:37.787Z,5.33
2022-11-13T01:50:48.031Z,5.34
2022-11-13T01:50:58.284Z,5.34
2022-11-13T01:51:08.548Z,5.33
2022-11-13T01:51:18.773Z,5.33
2022-11-13T01:51:29.020Z,5.33
2022-11-13T01:51:39.259Z,5.33
2022-11-13T01:51:49.510Z,5.33
2022-11-13T01:51:59.760Z,5.33
2022-11-13T01:52:09.993Z,5.31
2022-11-13T01:52:20.234Z,5.31
2022-11-13T01:52:30.482Z,5.31
2022-11-13T01:52:40.729Z,5.31
2022-11-13T01:52:50.968Z,5.31
2022-11-13T01:53:01.218Z,5.29
2022-11-13T01:53:11.464Z,5.31
2022-11-13T01:53:21.724Z,5.29
2022-11-13T01:53:31.959Z,5.29
2022-11-13T01:53:42.213Z,5.31
2022-11-13T01:53:52.483Z,5.31
2022-11-13T01:54:02.703Z,5.31
2022-11-13T01:54:12.946Z,5.29
2022-11-13T01:54:23.189Z,5.29
2022-11-13T01:54:33.448Z,5.29
2022-11-13T01:54:43.686Z,5.28
2022-11-13T01:54:53.920Z,5.29
2022-11-13T01:55:04.170Z,5.28
2022-11-13T01:55:14.415Z,5.28
2022-11-13T01:55:24.662Z,5.29
2022-11-13T01:55:34.900Z,5.28
2022-11-13T01:55:45.154Z,5.28
2022-11-13T01:55:55.399Z,5.26
2022-11-13T01:56:05.644Z,5.28
2022-11-13T01:56:15.888Z,5.28
2022-11-13T01:56:26.130Z,5.25
2022-11-13T01:56:36.377Z,5.26
2022-11-13T01:56:46.640Z,5.25
2022-11-13T01:56:56.885Z,5.25
2022-11-13T01:57:07.132Z,5.28
2022-11-13T01:57:17.368Z,5.26
2022-11-13T01:57:27.617Z,5.26
2022-11-13T01:57:37.863Z,5.25
2022-11-13T01:57:48.105Z,5.23
2022-11-13T01:57:58.370Z,5.26
2022-11-13T01:58:08.610Z,5.25
2022-11-13T01:58:18.869Z,5.23
2022-11-13T01:58:29.381Z,5.23
2022-11-13T01:58:39.379Z,5.25
2022-11-13T01:58:49.604Z,5.23
2022-11-13T01:58:59.860Z,5.25
2022-11-13T01:59:10.090Z,5.23
2022-11-13T01:59:20.336Z,5.23
2022-11-13T01:59:30.579Z,5.23
2022-11-13T01:59:40.826Z,5.23
2022-11-13T01:59:51.067Z,5.22
2022-11-13T02:00:01.324Z,5.23
2022-11-13T02:00:11.565Z,5.22
2022-11-13T02:00:21.799Z,5.23
2022-11-13T02:00:32.044Z,5.22
2022-11-13T02:00:42.304Z,5.22
2022-11-13T02:00:52.545Z,5.22
2022-11-13T02:01:02.810Z,5.22
2022-11-13T02:01:13.051Z,5.23
2022-11-13T02:01:23.412Z,5.20
2022-11-13T02:01:33.693Z,5.19
2022-11-13T02:01:44.009Z,5.19
2022-11-13T02:01:54.254Z,5.20
2022-11-13T02:02:04.539Z,5.20
2022-11-13T02:02:14.775Z,5.22
2022-11-13T02:02:25.026Z,5.22
2022-11-13T02:02:35.266Z,5.20
2022-11-13T02:02:45.507Z,5.19
2022-11-13T02:02:55.754Z,5.20
2022-11-13T02:03:06.118Z,5.20
2022-11-13T02:03:16.314Z,5.19
2022-11-13T02:03:26.555Z,5.19
2022-11-13T02:03:36.798Z,5.19
2022-11-13T02:03:47.044Z,5.16
2022-11-13T02:03:57.290Z,5.19
2022-11-13T02:04:07.531Z,5.18
2022-11-13T02:04:17.798Z,5.19
2022-11-13T02:04:28.028Z,5.19
2022-11-13T02:04:38.262Z,5.18
2022-11-13T02:04:48.510Z,5.18
2022-11-13T02:04:58.751Z,5.18
2022-11-13T02:05:09.002Z,5.15
2022-11-13T02:05:19.262Z,5.16
2022-11-13T02:05:29.519Z,5.18
2022-11-13T02:05:39.750Z,5.16
2022-11-13T02:05:50.012Z,5.15
2022-11-13T02:06:00.258Z,5.18
2022-11-13T02:06:10.502Z,5.15
2022-11-13T02:06:20.744Z,5.16
2022-11-13T02:06:30.989Z,5.15
2022-11-13T02:06:41.338Z,5.15
2022-11-13T02:06:51.623Z,5.15
2022-11-13T02:07:01.907Z,5.15
2022-11-13T02:07:12.213Z,5.15
2022-11-13T02:07:22.495Z,5.15
2022-11-13T02:07:32.709Z,5.15
2022-11-13T02:07:42.958Z,5.13
2022-11-13T02:07:53.201Z,5.15
2022-11-13T02:08:03.443Z,5.13
2022-11-13T02:08:13.694Z,5.13
2022-11-13T02:08:23.931Z,5.13
2022-11-13T02:08:34.174Z,5.15
2022-11-13T02:08:44.416Z,5.13
2022-11-13T02:08:54.661Z,5.12
2022-11-13T02:09:04.908Z,5.13
2022-11-13T02:09:15.152Z,5.13
2022-11-13T02:09:25.394Z,5.13
2022-11-13T02:09:35.644Z,5.13
2022-11-13T02:09:45.881Z,5.13
2022-11-13T02:09:56.138Z,5.12
2022-11-13T02:10:06.368Z,5.13
2022-11-13T02:10:16.616Z,5.12
2022-11-13T02:10:26.876Z,5.12
2022-11-13T02:10:37.124Z,5.12
2022-11-13T02:10:47.362Z,5.13
2022-11-13T02:10:57.610Z,5.10
2022-11-13T02:11:07.852Z,5.12
2022-11-13T02:11:18.097Z,5.08
2022-11-13T02:11:28.341Z,5.13
2022-11-13T02:11:38.584Z,5.12
2022-11-13T02:11:48.824Z,5.10
2022-11-13T02:11:59.079Z,5.10
2022-11-13T02:12:09.328Z,5.10
2022-11-13T02:12:19.565Z,5.10
2022-11-13T02:12:29.804Z,5.08
2022-11-13T02:12:40.055Z,5.10
2022-11-13T02:12:50.296Z,5.08
2022-11-13T02:13:00.538Z,5.08
2022-11-13T02:13:10.785Z,5.08
2022-11-13T02:13:21.023Z,5.08
2022-11-13T02:13:31.270Z,5.08
2022-11-13T02:13:41.516Z,5.08
2022-11-13T02:13:51.764Z,5.07
2022-11-13T02:14:02.013Z,5.10
2022-11-13T02:14:12.245Z,5.05
2022-11-13T02:14:22.502Z,5.08
2022-11-13T02:14:32.746Z,5.07
2022-11-13T02:14:42.990Z,5.07
2022-11-13T02:14:53.307Z,5.05
2022-11-13T02:15:03.501Z,5.07
2022-11-13T02:15:13.746Z,5.05
2022-11-13T02:15:24.009Z,5.07
2022-11-13T02:15:34.258Z,5.07
2022-11-13T02:15:44.496Z,5.05
2022-11-13T02:15:54.743Z,5.05
2022-11-13T02:16:04.991Z,5.05
2022-11-13T02:16:15.227Z,5.07
2022-11-13T02:16:25.474Z,5.07
2022-11-13T02:16:35.715Z,5.04